Time;durP1;ratioP1;P1;durP2;ratioP2;P2;SDS_P1;SDS_P2;PMS_P1;PMS_P2;Temp;Humidity;BMP_temperature;BMP_pressure;BME280_temperature;BME280_humidity;BME280_pressure;Samples;Min_cycle;Max_cycle;Signal;HPM_P1;HPM_P2
2023/05/14 00:00:28;;;;;;;7.78;4.93;;;;;;;13.12;60.94;100054.84;5112420;28;20059;-81
2023/05/14 00:02:53;;;;;;;8.35;5.28;;;;;;;13.08;61.02;100050.72;5112563;28;20076;-81
2023/05/14 00:05:19;;;;;;;8.55;5.03;;;;;;;13.23;61.26;100060.41;5112239;28;20720;-81
2023/05/14 00:07:44;;;;;;;5.80;4.68;;;;;;;13.31;60.99;100067.88;5112658;28;20402;-81
2023/05/14 00:10:10;;;;;;;6.97;5.30;;;;;;;13.02;61.25;100020.50;5112113;28;20118;-81
2023/05/14 00:12:35;;;;;;;10.70;5.15;;;;;;;13.06;60.99;100032.50;5112283;28;20044;-81
2023/05/14 00:15:01;;;;;;;6.85;5.25;;;;;;;13.26;61.02;100070.72;5112296;28;20637;-81
2023/05/14 00:17:26;;;;;;;7.00;4.70;;;;;;;12.98;61.10;100022.41;5112048;28;20106;-80
2023/05/14 00:19:51;;;;;;;6.22;4.65;;;;;;;13.05;61.56;100033.41;5112345;28;20020;-81
2023/05/14 00:22:17;;;;;;;5.25;4.75;;;;;;;13.07;61.38;100036.78;5112067;28;20114;-81
2023/05/14 00:24:42;;;;;;;6.43;5.20;;;;;;;13.11;61.34;100037.50;5112115;28;20050;-81
2023/05/14 00:27:08;;;;;;;8.43;4.90;;;;;;;13.17;61.48;100045.84;5112358;28;20114;-81
2023/05/14 00:29:34;;;;;;;5.28;4.68;;;;;;;13.16;61.35;100046.78;5111852;28;20420;-81
2023/05/14 00:31:59;;;;;;;5.90;5.15;;;;;;;13.08;61.25;100025.41;5112206;28;20102;-81
2023/05/14 00:34:24;;;;;;;6.35;4.60;;;;;;;13.19;61.79;100044.00;5111989;28;20024;-81
2023/05/14 00:36:50;;;;;;;9.75;5.10;;;;;;;13.26;61.81;100062.03;5112310;28;20077;-81
2023/05/14 00:39:16;;;;;;;5.32;4.63;;;;;;;13.06;61.93;100037.72;5112060;28;20042;-81
2023/05/14 00:41:41;;;;;;;6.95;4.95;;;;;;;13.12;61.98;100047.00;5112148;28;20031;-81
2023/05/14 00:44:06;;;;;;;5.75;5.05;;;;;;;12.99;62.10;100037.19;5112172;28;20513;-81
2023/05/14 00:46:32;;;;;;;6.43;5.03;;;;;;;13.17;62.24;100055.47;5111802;28;20489;-81
2023/05/14 00:48:58;;;;;;;5.63;4.72;;;;;;;13.17;62.12;100051.06;5114108;28;20027;-81
2023/05/14 00:51:24;;;;;;;5.78;4.53;;;;;;;12.99;62.32;100033.72;5115912;28;20055;-81
2023/05/14 00:53:50;;;;;;;7.55;5.50;;;;;;;13.12;62.26;100063.56;5115953;28;20100;-81
2023/05/14 00:56:17;;;;;;;7.47;5.40;;;;;;;12.93;62.03;100029.63;5115888;28;20039;-81
2023/05/14 00:58:42;;;;;;;7.00;5.32;;;;;;;13.07;62.43;100047.25;5115993;28;20048;-81
2023/05/14 01:01:08;;;;;;;7.25;5.22;;;;;;;12.91;61.82;100018.41;5115837;28;20112;-81
2023/05/14 01:03:34;;;;;;;5.43;4.90;;;;;;;13.08;62.19;100048.94;5115592;28;20031;-81
2023/05/14 01:06:16;;;;;;;7.00;5.20;;;;;;;13.11;62.44;100046.19;5115788;28;20035;-81
2023/05/14 01:09:16;;;;;;;6.15;4.32;;;;;;;13.13;62.53;100052.16;5115927;28;20463;-81
2023/05/14 01:11:58;;;;;;;6.47;4.72;;;;;;;13.06;62.05;100015.94;5115639;28;20092;-81
2023/05/14 01:14:55;;;;;;;6.50;4.72;;;;;;;13.25;62.10;100039.41;5115363;28;20070;-81
2023/05/14 01:17:24;;;;;;;6.13;4.70;;;;;;;13.11;62.04;100016.56;5012576;28;20037;-81
2023/05/14 01:19:50;;;;;;;6.88;4.78;;;;;;;13.20;61.97;100011.69;5012722;28;20038;-81
2023/05/14 01:22:16;;;;;;;6.30;5.00;;;;;;;13.21;61.99;100012.53;4995889;28;20092;-81
2023/05/14 01:24:42;;;;;;;7.03;5.10;;;;;;;13.39;61.73;100043.00;5012618;28;20026;-81
2023/05/14 01:27:45;;;;;;;10.10;5.22;;;;;;;13.40;61.56;100039.47;5012536;28;20073;-81
2023/05/14 01:30:20;;;;;;;9.85;4.95;;;;;;;13.30;61.85;100026.94;4934986;29;20438;-81
2023/05/14 01:32:49;;;;;;;5.43;4.75;;;;;;;13.50;61.77;100041.63;4935004;29;20047;-81
2023/05/14 01:35:15;;;;;;;8.52;4.75;;;;;;;13.28;61.89;100010.50;4934641;29;20095;-81
2023/05/14 01:37:43;;;;;;;5.95;4.85;;;;;;;13.21;61.86;100002.06;4934861;29;20468;-81
2023/05/14 01:40:10;;;;;;;6.65;5.05;;;;;;;13.45;61.82;100026.16;4935029;29;20031;-81
2023/05/14 01:42:36;;;;;;;4.68;4.07;;;;;;;13.36;61.98;100013.56;4934654;29;20539;-81
2023/05/14 01:45:02;;;;;;;6.75;4.90;;;;;;;13.43;61.78;100041.06;4934844;29;20448;-81
2023/05/14 01:47:27;;;;;;;6.90;4.90;;;;;;;13.27;61.94;100014.84;4918272;29;20044;-81
2023/05/14 01:49:52;;;;;;;6.53;4.95;;;;;;;13.28;62.00;100019.19;4934905;29;20055;-80
2023/05/14 01:52:20;;;;;;;6.57;4.78;;;;;;;13.40;62.05;100012.44;4934396;29;20094;-81
2023/05/14 01:54:48;;;;;;;6.97;4.65;;;;;;;13.52;62.08;100032.72;4976389;28;20042;-81
2023/05/14 01:57:13;;;;;;;7.78;4.85;;;;;;;13.46;62.15;100015.59;4992488;28;20383;-81
2023/05/14 01:59:38;;;;;;;5.75;4.70;;;;;;;13.41;62.13;100017.63;4991325;28;20133;-81
2023/05/14 02:02:04;;;;;;;6.88;5.13;;;;;;;13.49;62.32;100035.53;4992219;28;20487;-81
2023/05/14 02:04:29;;;;;;;6.55;5.30;;;;;;;13.42;62.54;100028.94;4992186;28;20501;-81
2023/05/14 02:06:54;;;;;;;6.43;4.45;;;;;;;13.56;62.44;100029.03;5049932;28;20115;-81
2023/05/14 02:09:20;;;;;;;6.68;4.82;;;;;;;13.37;62.62;99989.09;5114486;28;20026;-81
2023/05/14 02:11:45;;;;;;;8.55;4.63;;;;;;;13.37;62.34;100002.16;5114636;28;20028;-81
2023/05/14 02:14:10;;;;;;;7.63;5.38;;;;;;;13.47;62.69;100032.97;5114370;28;20066;-81
2023/05/14 02:16:36;;;;;;;5.60;4.75;;;;;;;13.47;62.73;100034.75;5114179;28;20080;-81
2023/05/14 02:19:01;;;;;;;6.45;5.25;;;;;;;13.40;62.80;100029.03;5114306;28;20024;-81
2023/05/14 02:21:26;;;;;;;6.55;5.18;;;;;;;13.25;62.73;100008.88;5113864;28;20027;-81
2023/05/14 02:23:52;;;;;;;6.05;5.22;;;;;;;13.32;63.03;100020.72;5114649;28;20019;-81
2023/05/14 02:26:17;;;;;;;8.23;5.40;;;;;;;13.36;62.92;100021.41;5114084;28;20023;-81
2023/05/14 02:28:43;;;;;;;7.43;5.65;;;;;;;13.26;62.88;100005.31;5114234;28;20031;-81
2023/05/14 02:31:08;;;;;;;6.70;5.63;;;;;;;13.09;63.21;99985.25;5114031;28;20055;-81
2023/05/14 02:33:34;;;;;;;7.88;5.13;;;;;;;13.30;63.32;100009.47;5113835;28;20427;-81
2023/05/14 02:35:59;;;;;;;6.60;5.72;;;;;;;13.16;63.52;100002.31;5113883;28;20099;-81
2023/05/14 02:38:25;;;;;;;11.55;5.45;;;;;;;13.19;63.52;100012.63;5113972;28;20031;-81
2023/05/14 02:40:50;;;;;;;6.93;5.63;;;;;;;13.19;63.66;100006.56;5113983;28;20386;-81
2023/05/14 02:43:16;;;;;;;10.02;6.13;;;;;;;13.28;63.66;100015.72;5113802;28;20027;-81
2023/05/14 02:45:41;;;;;;;7.82;5.95;;;;;;;13.04;63.68;99982.03;5113649;28;20449;-81
2023/05/14 02:48:07;;;;;;;7.47;5.93;;;;;;;13.27;63.59;100008.78;5113693;28;20024;-81
2023/05/14 02:50:32;;;;;;;9.13;6.00;;;;;;;13.23;63.68;100003.72;5113375;28;20031;-81
2023/05/14 02:52:57;;;;;;;7.70;6.22;;;;;;;13.19;63.85;100006.56;5113579;28;20383;-80
2023/05/14 02:55:25;;;;;;;8.95;6.38;;;;;;;12.99;63.92;99978.81;5113691;28;20058;-81
2023/05/14 02:57:52;;;;;;;6.75;6.05;;;;;;;13.10;63.77;99975.63;5113517;28;20035;-81
2023/05/14 03:00:18;;;;;;;9.43;6.40;;;;;;;13.11;63.88;100000.88;5113572;28;20405;-81
2023/05/14 03:02:43;;;;;;;6.38;5.72;;;;;;;13.04;64.08;99994.25;5113220;28;20464;-81
2023/05/14 03:05:08;;;;;;;7.85;6.40;;;;;;;12.88;64.26;99970.66;5113420;28;20034;-81
2023/05/14 03:07:34;;;;;;;7.47;6.68;;;;;;;12.86;64.34;99967.28;5113333;28;20035;-81
2023/05/14 03:09:59;;;;;;;8.82;6.57;;;;;;;12.75;64.50;99957.38;5113471;28;20015;-81
2023/05/14 03:12:25;;;;;;;9.30;6.20;;;;;;;12.75;64.42;99957.38;5112748;28;20086;-81
2023/05/14 03:14:50;;;;;;;9.43;5.80;;;;;;;12.80;64.80;99970.19;5113390;28;20020;-81
2023/05/14 03:17:16;;;;;;;8.57;6.30;;;;;;;13.02;64.71;100003.94;5113550;28;20031;-81
2023/05/14 03:19:41;;;;;;;7.20;5.88;;;;;;;12.83;64.98;99973.50;5112995;28;20069;-81
2023/05/14 03:22:06;;;;;;;8.00;6.43;;;;;;;12.88;64.76;99981.94;5113287;28;20102;-81
2023/05/14 03:24:32;;;;;;;7.70;5.97;;;;;;;12.92;64.92;99987.88;5112930;28;20110;-81
2023/05/14 03:26:57;;;;;;;8.10;5.55;;;;;;;12.89;65.16;99996.75;5113139;28;20451;-81
2023/05/14 03:29:22;;;;;;;10.13;6.72;;;;;;;12.77;65.38;99992.13;5112709;28;20024;-81
2023/05/14 03:31:49;;;;;;;11.25;6.43;;;;;;;12.72;65.59;99983.66;5112994;28;20027;-81
2023/05/14 03:34:14;;;;;;;9.13;6.03;;;;;;;12.75;65.54;99983.50;5112851;28;20056;-81
2023/05/14 03:36:40;;;;;;;11.43;6.30;;;;;;;12.68;65.82;99976.88;5113134;28;20059;-81
2023/05/14 03:39:08;;;;;;;8.65;6.65;;;;;;;12.78;65.47;99996.44;5112938;28;20046;-81
2023/05/14 03:41:34;;;;;;;7.68;5.78;;;;;;;12.57;65.60;99961.75;5112458;28;20032;-81
2023/05/14 03:44:00;;;;;;;7.88;6.22;;;;;;;12.78;65.77;99993.81;5112774;28;20027;-81
2023/05/14 03:46:25;;;;;;;9.55;6.75;;;;;;;12.69;65.91;99968.97;5112327;28;20046;-80
2023/05/14 03:48:51;;;;;;;7.60;5.65;;;;;;;12.77;66.06;100001.72;5112484;28;20020;-81
2023/05/14 03:51:16;;;;;;;6.88;6.20;;;;;;;12.74;66.23;99994.88;5112806;28;20023;-81
2023/05/14 03:53:41;;;;;;;6.97;5.88;;;;;;;12.58;66.05;99971.28;5112522;28;20030;-81
2023/05/14 03:56:07;;;;;;;8.27;6.10;;;;;;;12.59;66.29;99959.91;5112680;28;20448;-81
2023/05/14 03:58:32;;;;;;;15.32;12.60;;;;;;;12.56;65.91;99962.69;5112361;28;20488;-81
2023/05/14 04:00:57;;;;;;;9.40;8.10;;;;;;;12.76;65.83;99976.50;5112538;28;20023;-81
2023/05/14 04:03:23;;;;;;;8.18;6.68;;;;;;;12.74;65.75;99966.13;5112105;28;20020;-81
2023/05/14 04:05:50;;;;;;;9.18;6.15;;;;;;;12.88;65.18;99973.28;5112644;28;20106;-81
2023/05/14 04:08:15;;;;;;;6.97;6.03;;;;;;;13.16;64.59;99970.94;5112635;28;20031;-81
2023/05/14 04:10:42;;;;;;;9.80;6.20;;;;;;;13.57;63.72;99970.56;5112551;28;20028;-81
2023/05/14 04:13:07;;;;;;;8.82;6.15;;;;;;;14.30;61.90;99965.63;5112483;28;20407;-82
2023/05/14 04:15:34;;;;;;;8.05;6.72;;;;;;;15.18;59.70;99958.75;5112134;28;20024;-81
2023/05/14 04:17:59;;;;;;;6.93;6.15;;;;;;;16.11;57.26;99962.59;5112190;28;20085;-82
2023/05/14 04:20:25;;;;;;;8.88;6.63;;;;;;;16.59;56.20;99989.22;5112171;28;20425;-82
2023/05/14 04:22:51;;;;;;;7.13;5.90;;;;;;;16.57;55.85;99988.50;5112447;28;20034;-82
2023/05/14 04:25:17;;;;;;;7.60;5.80;;;;;;;16.43;56.61;99992.03;5116489;28;20049;-82
2023/05/14 04:27:42;;;;;;;8.75;7.00;;;;;;;16.38;56.87;99996.75;5116285;28;20028;-82
2023/05/14 04:30:08;;;;;;;6.68;5.95;;;;;;;16.40;56.87;99994.88;5116459;28;20024;-82
2023/05/14 04:32:34;;;;;;;7.18;6.07;;;;;;;16.47;56.36;99961.97;5116169;28;20098;-82
2023/05/14 04:34:59;;;;;;;9.43;5.68;;;;;;;16.95;55.15;99971.03;5116947;28;20027;-82
2023/05/14 04:37:25;;;;;;;7.13;5.43;;;;;;;17.94;53.77;100001.91;5116283;28;20031;-83
2023/05/14 04:39:50;;;;;;;8.77;7.40;;;;;;;18.68;51.60;99971.00;5116475;28;20386;-83
2023/05/14 04:42:15;;;;;;;7.03;5.45;;;;;;;19.44;50.34;99990.72;5116120;28;20028;-83
2023/05/14 04:44:41;;;;;;;7.90;5.40;;;;;;;19.61;50.15;99990.28;5116266;28;20023;-83
2023/05/14 04:47:06;;;;;;;7.20;5.85;;;;;;;19.37;50.36;99966.56;5115927;28;20073;-83
2023/05/14 04:49:32;;;;;;;5.88;5.28;;;;;;;19.32;50.52;99991.69;5116104;28;20073;-83
2023/05/14 04:51:57;;;;;;;12.65;11.07;;;;;;;18.86;51.36;99961.72;5116155;28;20118;-83
2023/05/14 04:54:23;;;;;;;8.75;6.45;;;;;;;18.59;50.89;99940.88;5116185;28;20359;-83
2023/05/14 04:56:49;;;;;;;6.97;6.13;;;;;;;19.17;51.43;99996.31;5115808;28;20066;-82
2023/05/14 04:59:15;;;;;;;10.18;9.27;;;;;;;19.76;50.20;99977.63;5115964;28;20057;-83
2023/05/14 05:01:40;;;;;;;9.07;8.18;;;;;;;20.52;48.35;99975.06;5115353;28;20115;-83
2023/05/14 05:04:06;;;;;;;9.23;6.65;;;;;;;20.82;48.04;99969.03;5116038;28;20115;-82
2023/05/14 05:06:31;;;;;;;8.90;7.38;;;;;;;21.27;46.78;99963.41;5115733;28;20387;-83
2023/05/14 05:08:56;;;;;;;7.55;6.05;;;;;;;20.86;47.15;99967.81;5115907;28;20084;-83
2023/05/14 05:11:22;;;;;;;9.10;6.82;;;;;;;20.36;48.31;99938.44;5115700;28;20512;-83
2023/05/14 05:13:47;;;;;;;9.80;7.13;;;;;;;20.51;48.17;99955.69;5115142;28;20048;-83
2023/05/14 05:16:12;;;;;;;9.77;7.40;;;;;;;20.44;48.05;99946.56;5115533;28;20461;-83
2023/05/14 05:18:38;;;;;;;8.75;6.75;;;;;;;20.15;48.15;99956.91;5115786;28;20394;-82
2023/05/14 05:21:03;;;;;;;6.93;6.22;;;;;;;19.71;49.29;99931.41;5115464;28;20030;-82
2023/05/14 05:23:28;;;;;;;9.30;7.63;;;;;;;20.46;48.07;99979.03;5115250;28;20394;-83
2023/05/14 05:25:54;;;;;;;9.13;6.53;;;;;;;20.88;47.23;99948.16;5115510;28;20055;-82
2023/05/14 05:28:19;;;;;;;7.30;6.40;;;;;;;21.22;46.93;99941.78;5115390;28;20084;-83
2023/05/14 05:30:44;;;;;;;6.93;6.07;;;;;;;21.08;46.66;99961.53;5115034;28;20103;-83
2023/05/14 05:33:11;;;;;;;8.27;7.00;;;;;;;20.30;47.49;99931.81;5115220;28;20031;-83
2023/05/14 05:35:36;;;;;;;6.30;5.70;;;;;;;20.14;48.31;99942.84;5114744;28;20032;-83
2023/05/14 05:38:02;;;;;;;7.72;6.47;;;;;;;20.04;48.55;99951.63;5115326;28;20475;-83
2023/05/14 05:40:27;;;;;;;6.93;6.05;;;;;;;19.69;48.62;99942.09;5115220;28;20514;-83
2023/05/14 05:42:53;;;;;;;7.10;5.85;;;;;;;19.68;48.75;99924.59;5114805;28;20065;-83
2023/05/14 05:45:18;;;;;;;7.65;6.68;;;;;;;20.32;48.10;99955.53;5115110;28;20024;-83
2023/05/14 05:47:43;;;;;;;8.20;6.90;;;;;;;21.04;46.61;99918.56;5114793;28;20024;-83
2023/05/14 05:50:09;;;;;;;8.80;7.45;;;;;;;20.73;47.24;99960.06;5115255;28;20040;-83
2023/05/14 05:52:35;;;;;;;8.30;6.50;;;;;;;20.18;48.23;99949.56;5114835;28;20421;-83
2023/05/14 05:55:00;;;;;;;7.20;6.43;;;;;;;19.93;48.97;99937.50;5114951;28;20076;-83
2023/05/14 05:57:26;;;;;;;9.05;5.90;;;;;;;19.62;49.30;99917.13;5114789;28;20028;-83
2023/05/14 05:59:51;;;;;;;7.07;6.38;;;;;;;19.52;49.85;99939.94;5114424;28;20023;-83
2023/05/14 06:02:18;;;;;;;6.75;5.40;;;;;;;19.62;49.62;99936.47;5096202;28;20096;-82
2023/05/14 06:04:43;;;;;;;6.90;5.97;;;;;;;20.03;48.70;99939.38;5114640;28;20513;-83
2023/05/14 06:07:08;;;;;;;7.45;5.53;;;;;;;19.85;48.63;99918.78;5114664;28;20031;-83
2023/05/14 06:09:34;;;;;;;5.95;5.28;;;;;;;19.65;49.33;99952.06;5114229;28;20016;-83
2023/05/14 06:11:59;;;;;;;8.57;5.75;;;;;;;19.44;50.19;99961.66;5114521;28;20028;-83
2023/05/14 06:14:24;;;;;;;6.65;5.80;;;;;;;19.23;50.32;99947.50;5114360;28;20395;-82
2023/05/14 06:16:50;;;;;;;8.25;6.13;;;;;;;18.93;51.01;99957.66;5114107;28;20023;-83
2023/05/14 06:19:15;;;;;;;9.68;6.10;;;;;;;18.66;51.43;99938.59;5114853;28;20027;-82
2023/05/14 06:21:40;;;;;;;5.78;4.90;;;;;;;18.66;52.17;99934.16;5114175;28;20015;-82
2023/05/14 06:24:06;;;;;;;5.22;4.72;;;;;;;18.73;51.34;99936.38;5096183;28;20490;-81
2023/05/14 06:26:31;;;;;;;7.82;5.68;;;;;;;18.94;51.26;99934.75;5114094;28;20098;-81
2023/05/14 06:28:57;;;;;;;6.88;5.13;;;;;;;19.75;49.96;99948.69;5114169;28;20028;-82
2023/05/14 06:31:22;;;;;;;7.20;5.15;;;;;;;20.52;49.08;99949.47;5114544;28;20489;-82
2023/05/14 06:33:47;;;;;;;9.82;7.65;;;;;;;21.00;48.14;99934.84;5114015;28;20028;-82
2023/05/14 06:36:13;;;;;;;6.50;4.85;;;;;;;21.68;46.66;99938.63;5114152;28;20028;-81
2023/05/14 06:38:38;;;;;;;5.82;4.55;;;;;;;22.22;45.84;99942.66;5113797;28;20055;-82
2023/05/14 06:41:03;;;;;;;5.13;4.60;;;;;;;22.33;45.25;99947.84;5113955;28;20019;-82
2023/05/14 06:43:29;;;;;;;5.15;4.03;;;;;;;22.76;44.77;99937.75;5113850;28;20141;-82
2023/05/14 06:45:54;;;;;;;6.00;4.95;;;;;;;22.68;44.82;99941.13;5112857;28;20016;-82
2023/05/14 06:48:20;;;;;;;7.03;5.90;;;;;;;22.49;45.53;99954.41;5113912;28;20023;-81
2023/05/14 06:50:46;;;;;;;5.65;5.03;;;;;;;21.71;45.84;99916.34;5113718;28;20056;-82
2023/05/14 06:53:11;;;;;;;5.45;4.95;;;;;;;21.47;46.38;99922.81;5113805;28;20032;-81
2023/05/14 06:55:37;;;;;;;5.10;4.60;;;;;;;21.39;46.56;99923.47;5113531;28;20031;-81
2023/05/14 06:58:05;;;;;;;4.93;4.43;;;;;;;20.89;47.11;99933.94;5113577;28;20071;-81
2023/05/14 07:00:30;;;;;;;5.80;4.45;;;;;;;20.47;48.05;99935.72;5113702;28;20031;-81
2023/05/14 07:02:56;;;;;;;6.07;4.38;;;;;;;20.10;48.82;99945.84;5113222;28;20359;-81
2023/05/14 07:05:21;;;;;;;5.22;4.20;;;;;;;19.97;49.20;99914.28;5113657;28;20528;-81
2023/05/14 07:07:46;;;;;;;4.53;3.75;;;;;;;20.54;48.29;99921.03;5113527;28;20035;-81
2023/05/14 07:10:12;;;;;;;5.93;4.50;;;;;;;21.42;47.63;99919.72;5113532;28;20379;-81
2023/05/14 07:12:37;;;;;;;6.03;4.47;;;;;;;21.53;46.55;99895.78;5113149;28;20508;-81
2023/05/14 07:15:02;;;;;;;5.00;4.07;;;;;;;22.11;45.87;99924.19;5113210;28;20020;-81
2023/05/14 07:17:28;;;;;;;6.30;4.68;;;;;;;21.56;46.83;99897.31;5113433;28;20039;-81
2023/05/14 07:19:54;;;;;;;4.88;4.30;;;;;;;21.36;46.98;99877.84;5112983;28;20024;-81
2023/05/14 07:22:20;;;;;;;4.78;4.07;;;;;;;21.45;47.18;99913.31;5112968;28;20027;-81
2023/05/14 07:24:46;;;;;;;4.40;4.07;;;;;;;21.92;47.02;99912.59;5112837;28;20495;-81
2023/05/14 07:27:11;;;;;;;4.18;3.78;;;;;;;23.06;45.23;99910.16;5113023;28;20024;-81
2023/05/14 07:29:37;;;;;;;4.25;3.45;;;;;;;25.05;43.05;99906.47;5112684;28;20068;-81
2023/05/14 07:32:02;;;;;;;4.05;3.35;;;;;;;26.91;39.03;99893.66;5113341;28;20108;-82
2023/05/14 07:34:28;;;;;;;3.35;3.05;;;;;;;28.40;37.33;99904.31;5113070;28;20016;-82
2023/05/14 07:36:53;;;;;;;4.07;3.55;;;;;;;30.33;35.33;99907.66;5112824;28;20020;-82
2023/05/14 07:39:19;;;;;;;6.68;4.65;;;;;;;29.88;34.93;99901.63;5094575;28;20062;-82
2023/05/14 07:41:44;;;;;;;4.15;3.75;;;;;;;30.36;34.85;99901.09;5112499;28;20084;-82
2023/05/14 07:44:09;;;;;;;4.50;2.85;;;;;;;30.95;34.56;99906.94;5112714;28;20049;-82
2023/05/14 07:46:35;;;;;;;2.63;2.42;;;;;;;30.38;34.60;99909.78;5112929;28;20543;-82
2023/05/14 07:49:01;;;;;;;3.63;2.80;;;;;;;29.42;35.04;99887.66;5112399;28;20027;-81
2023/05/14 07:51:27;;;;;;;2.70;2.50;;;;;;;29.73;34.66;99906.22;5112650;28;20055;-82
2023/05/14 07:53:54;;;;;;;3.15;2.85;;;;;;;30.45;33.78;99890.00;5076145;28;20040;-82
2023/05/14 07:56:20;;;;;;;3.17;2.33;;;;;;;30.53;33.84;99880.97;5112552;28;20114;-82
2023/05/14 07:58:45;;;;;;;2.65;2.45;;;;;;;30.65;33.57;99898.22;5112145;28;20103;-82
2023/05/14 08:01:11;;;;;;;2.28;2.10;;;;;;;30.26;33.57;99899.56;5112889;28;20027;-82
2023/05/14 08:03:37;;;;;;;6.65;2.20;;;;;;;29.88;34.45;99903.50;5112487;28;20028;-82
2023/05/14 08:06:03;;;;;;;2.10;2.00;;;;;;;28.70;35.17;99893.66;5112224;28;20364;-81
2023/05/14 08:08:28;;;;;;;3.63;2.08;;;;;;;28.53;35.81;99867.00;5112452;28;20016;-81
2023/05/14 08:10:54;;;;;;;2.20;2.00;;;;;;;29.31;35.02;99854.91;5112123;28;20378;-82
2023/05/14 08:13:20;;;;;;;3.30;2.00;;;;;;;29.55;35.14;99871.72;5112304;28;20040;-82
2023/05/14 08:15:45;;;;;;;2.25;2.05;;;;;;;30.95;33.71;99885.41;5112526;28;20032;-82
2023/05/14 08:18:11;;;;;;;1.90;1.80;;;;;;;30.04;33.26;99863.78;5112551;28;20034;-82
2023/05/14 08:20:36;;;;;;;2.15;1.70;;;;;;;29.38;34.17;99868.41;5112483;28;20030;-81
2023/05/14 08:23:01;;;;;;;2.03;1.83;;;;;;;28.66;34.92;99844.94;5111969;28;20028;-81
2023/05/14 08:25:27;;;;;;;22.02;2.67;;;;;;;27.20;36.68;99865.53;5112268;28;20024;-81
2023/05/14 08:27:53;;;;;;;1.85;1.75;;;;;;;25.75;38.41;99871.59;5111919;28;20445;-81
2023/05/14 08:30:18;;;;;;;2.30;2.10;;;;;;;24.08;40.37;99851.50;5112369;28;20439;-81
2023/05/14 08:32:44;;;;;;;2.95;1.73;;;;;;;23.24;42.36;99887.16;5112148;28;20036;-81
2023/05/14 08:35:10;;;;;;;2.72;1.65;;;;;;;22.04;43.85;99849.66;5112299;28;20027;-81
2023/05/14 08:37:35;;;;;;;3.40;1.90;;;;;;;21.20;45.06;99849.22;5112120;28;20066;-81
2023/05/14 08:40:01;;;;;;;2.83;2.00;;;;;;;20.82;46.09;99841.97;5111155;28;20106;-81
2023/05/14 08:42:27;;;;;;;2.17;2.00;;;;;;;20.87;46.85;99843.22;5111455;28;20028;-81
2023/05/14 08:44:59;;;;;;;1.73;1.63;;;;;;;20.62;47.03;99870.97;5111793;28;20043;-81
2023/05/14 08:47:25;;;;;;;3.20;1.88;;;;;;;20.41;47.16;99863.00;5111757;28;20030;-81
2023/05/14 08:50:06;;;;;;;2.00;1.77;;;;;;;20.41;48.06;99878.88;5111669;28;20027;-81
2023/05/14 08:52:32;;;;;;;2.93;1.93;;;;;;;20.03;47.81;99858.25;5111601;28;20114;-81
2023/05/14 08:55:08;;;;;;;2.83;1.70;;;;;;;20.25;49.01;99865.25;5111443;28;20024;-81
2023/05/14 08:57:34;;;;;;;1.90;1.70;;;;;;;20.01;47.97;99820.53;5112007;28;20024;-81
2023/05/14 09:00:01;;;;;;;1.75;1.65;;;;;;;20.11;48.14;99847.06;5111626;28;20058;-81
2023/05/14 09:02:28;;;;;;;2.42;1.77;;;;;;;20.18;48.92;99850.84;5111458;28;20437;-81
2023/05/14 09:04:58;;;;;;;2.22;2.03;;;;;;;20.28;49.21;99853.59;5111476;28;20091;-81
2023/05/14 09:07:24;;;;;;;2.08;1.92;;;;;;;20.14;48.65;99849.41;5111569;28;20360;-80
2023/05/14 09:09:50;;;;;;;2.67;2.05;;;;;;;19.78;49.52;99825.06;5113030;28;20039;-81
2023/05/14 09:12:16;;;;;;;2.55;1.88;;;;;;;19.77;49.82;99822.56;5115313;28;20068;-81
2023/05/14 09:14:41;;;;;;;2.35;1.85;;;;;;;19.91;50.11;99848.69;5115366;28;20020;-81
2023/05/14 09:17:07;;;;;;;4.75;2.08;;;;;;;19.78;48.92;99808.38;5115353;28;20471;-80
2023/05/14 09:19:33;;;;;;;2.05;1.85;;;;;;;19.83;49.44;99796.47;5115513;28;20024;-81
2023/05/14 09:21:58;;;;;;;4.03;1.70;;;;;;;19.78;49.32;99793.38;5115173;28;20034;-81
2023/05/14 09:24:25;;;;;;;2.22;2.03;;;;;;;19.72;49.45;99827.38;5115650;28;20016;-81
2023/05/14 09:26:56;;;;;;;1.80;1.70;;;;;;;19.60;50.52;99798.31;5115249;28;20027;-81
2023/05/14 09:29:25;;;;;;;2.20;2.00;;;;;;;19.92;50.76;99802.78;5115500;28;20031;-81
2023/05/14 09:31:51;;;;;;;1.60;1.50;;;;;;;20.03;50.48;99789.53;5115206;28;20080;-81
2023/05/14 09:34:27;;;;;;;2.70;1.88;;;;;;;20.07;48.84;99792.75;5115382;28;20421;-81
2023/05/14 09:37:01;;;;;;;3.30;1.92;;;;;;;19.82;49.92;99800.06;5115047;28;20027;-82
2023/05/14 09:39:27;;;;;;;1.92;1.83;;;;;;;19.71;49.52;99788.69;5115116;28;20490;-82
2023/05/14 09:41:54;;;;;;;2.95;2.00;;;;;;;19.82;48.99;99808.00;5115312;28;20114;-82
2023/05/14 09:44:20;;;;;;;2.53;1.88;;;;;;;19.69;49.87;99804.69;5115097;28;20047;-81
2023/05/14 09:46:46;;;;;;;2.30;1.90;;;;;;;19.67;50.43;99793.41;5114844;28;20036;-81
2023/05/14 09:49:11;;;;;;;2.42;2.22;;;;;;;19.80;50.75;99786.13;5114779;28;20024;-82
2023/05/14 09:51:37;;;;;;;1.92;1.80;;;;;;;19.97;49.94;99766.22;5115356;28;20062;-82
2023/05/14 09:54:06;;;;;;;3.35;2.20;;;;;;;20.57;48.78;99785.00;5114939;28;20426;-82
2023/05/14 09:56:33;;;;;;;3.05;1.88;;;;;;;20.52;48.59;99753.66;5114992;28;20043;-82
2023/05/14 09:58:58;;;;;;;2.40;2.20;;;;;;;20.37;47.63;99750.47;5114726;28;20024;-82
2023/05/14 10:01:24;;;;;;;2.17;1.88;;;;;;;20.36;48.22;99748.81;5114736;28;20432;-82
2023/05/14 10:03:51;;;;;;;3.25;2.10;;;;;;;20.50;48.68;99763.50;5114403;28;20026;-82
2023/05/14 10:06:20;;;;;;;2.33;2.13;;;;;;;20.62;48.89;99772.22;5114908;28;20110;-82
2023/05/14 10:08:48;;;;;;;2.45;2.25;;;;;;;20.61;48.37;99739.63;5114522;28;20019;-82
2023/05/14 10:11:19;;;;;;;2.38;2.17;;;;;;;20.65;48.67;99719.84;5114492;28;20019;-82
2023/05/14 10:13:49;;;;;;;;;;;;;;;21.02;46.42;99774.00;5114776;28;20104;-82
2023/05/14 10:16:39;;;;;;;1.60;1.50;;;;;;;20.73;46.59;99764.19;5114419;28;19937;-82
2023/05/14 10:19:08;;;;;;;2.95;2.03;;;;;;;20.44;46.72;99737.56;5114408;28;20070;-82
2023/05/14 10:21:35;;;;;;;2.75;1.80;;;;;;;20.06;46.86;99682.69;5113207;28;20425;-82
2023/05/14 10:24:03;;;;;;;2.22;1.70;;;;;;;20.35;47.24;99718.03;5114105;28;20089;-82
2023/05/14 10:26:30;;;;;;;2.30;2.10;;;;;;;20.77;47.71;99748.84;5114220;28;20028;-82
2023/05/14 10:28:57;;;;;;;2.97;1.90;;;;;;;20.58;47.57;99733.75;5113926;28;20054;-82
2023/05/14 10:31:45;;;;;;;3.33;1.88;;;;;;;20.70;47.52;99743.28;5114640;28;20081;-82
2023/05/14 10:34:39;;;;;;;2.10;1.73;;;;;;;20.99;46.73;99740.72;5050783;28;20033;-81
2023/05/14 10:37:10;;;;;;;1.98;1.88;;;;;;;20.96;46.63;99714.50;5050740;28;20079;-82
2023/05/14 10:39:39;;;;;;;2.15;1.95;;;;;;;21.20;46.97;99715.94;5051044;28;20029;-82
2023/05/14 10:42:05;;;;;;;4.00;2.72;;;;;;;21.22;45.87;99719.28;5050620;28;20463;-82
2023/05/14 10:44:34;;;;;;;1.88;1.77;;;;;;;21.22;46.53;99725.41;5050716;28;20083;-82
2023/05/14 10:47:02;;;;;;;3.03;1.95;;;;;;;21.34;46.38;99728.81;5050533;28;20087;-82
2023/05/14 10:49:27;;;;;;;2.08;1.77;;;;;;;21.13;46.97;99732.38;5050928;28;20037;-82
2023/05/14 10:51:53;;;;;;;1.73;1.60;;;;;;;20.63;46.80;99708.56;5049216;28;20055;-82
2023/05/14 10:54:18;;;;;;;1.98;1.88;;;;;;;20.53;46.98;99688.34;5030692;28;20071;-82
2023/05/14 10:56:46;;;;;;;4.47;1.48;;;;;;;20.48;47.16;99695.78;5030712;28;20088;-82
2023/05/14 10:59:12;;;;;;;2.40;1.70;;;;;;;20.64;47.93;99712.03;5030181;28;20124;-82
2023/05/14 11:01:39;;;;;;;3.28;1.88;;;;;;;20.90;46.96;99704.47;5030488;28;20393;-79
2023/05/14 11:04:05;;;;;;;4.60;1.85;;;;;;;20.88;46.58;99699.28;5033951;28;20489;-80
2023/05/14 11:06:31;;;;;;;1.73;1.63;;;;;;;20.99;46.47;99716.88;5092962;28;20050;-80
2023/05/14 11:09:00;;;;;;;2.78;1.70;;;;;;;21.06;46.65;99680.91;5092958;28;20024;-80
2023/05/14 11:11:25;;;;;;;2.13;1.80;;;;;;;21.27;46.43;99685.25;5092953;28;20441;-80
2023/05/14 11:13:52;;;;;;;2.22;2.03;;;;;;;21.46;45.90;99703.84;5092571;28;20040;-80
2023/05/14 11:16:22;;;;;;;1.90;1.58;;;;;;;21.22;45.97;99659.19;5092903;28;20475;-80
2023/05/14 11:18:52;;;;;;;1.77;1.65;;;;;;;21.32;45.56;99675.97;5092798;28;20379;-80
2023/05/14 11:21:17;;;;;;;1.98;1.83;;;;;;;21.46;45.35;99677.34;5092972;28;20046;-80
2023/05/14 11:23:45;;;;;;;3.70;2.15;;;;;;;21.36;45.48;99672.06;5093052;28;20459;-80
2023/05/14 11:26:11;;;;;;;11.70;9.20;;;;;;;21.08;46.29;99694.03;5092575;28;20024;-80
2023/05/14 11:28:37;;;;;;;6.57;3.40;;;;;;;20.76;47.27;99660.66;5092678;28;20028;-80